sensor_id;sensor_type;location;lat;lon;timestamp;temperature;humidity
3186;DHT22;1604;53.700;10.252;2024-02-23T00:01:13;10.10;97.50
3186;DHT22;1604;53.700;10.252;2024-02-23T00:04:15;10.00;98.20
3186;DHT22;1604;53.700;10.252;2024-02-23T00:07:19;10.00;95.70
3186;DHT22;1604;53.700;10.252;2024-02-23T00:10:21;9.90;96.50
3186;DHT22;1604;53.700;10.252;2024-02-23T00:13:23;9.80;96.20
3186;DHT22;1604;53.700;10.252;2024-02-23T00:16:26;9.80;96.70
3186;DHT22;1604;53.700;10.252;2024-02-23T00:19:30;9.80;97.20
3186;DHT22;1604;53.700;10.252;2024-02-23T00:22:33;9.70;98.20
3186;DHT22;1604;53.700;10.252;2024-02-23T00:25:35;9.70;99.40
3186;DHT22;1604;53.700;10.252;2024-02-23T00:28:37;9.70;99.00
3186;DHT22;1604;53.700;10.252;2024-02-23T00:31:40;9.70;99.40
3186;DHT22;1604;53.700;10.252;2024-02-23T00:34:43;9.60;99.90
3186;DHT22;1604;53.700;10.252;2024-02-23T00:37:45;9.60;99.90
3186;DHT22;1604;53.700;10.252;2024-02-23T00:40:47;9.50;99.90
3186;DHT22;1604;53.700;10.252;2024-02-23T00:43:49;9.50;99.90
3186;DHT22;1604;53.700;10.252;2024-02-23T00:46:52;9.40;99.70
3186;DHT22;1604;53.700;10.252;2024-02-23T00:49:54;9.40;99.50
3186;DHT22;1604;53.700;10.252;2024-02-23T00:52:56;9.30;99.60
3186;DHT22;1604;53.700;10.252;2024-02-23T00:55:58;9.30;99.20
3186;DHT22;1604;53.700;10.252;2024-02-23T00:59:00;9.30;98.30
3186;DHT22;1604;53.700;10.252;2024-02-23T01:02:03;9.30;98.80
3186;DHT22;1604;53.700;10.252;2024-02-23T01:05:06;9.20;99.90
3186;DHT22;1604;53.700;10.252;2024-02-23T01:08:09;8.80;99.90
3186;DHT22;1604;53.700;10.252;2024-02-23T01:11:11;8.40;99.90
3186;DHT22;1604;53.700;10.252;2024-02-23T01:14:13;8.10;99.90
3186;DHT22;1604;53.700;10.252;2024-02-23T01:17:17;7.80;99.90
3186;DHT22;1604;53.700;10.252;2024-02-23T01:20:19;7.60;99.90
3186;DHT22;1604;53.700;10.252;2024-02-23T01:23:21;7.50;99.90
3186;DHT22;1604;53.700;10.252;2024-02-23T01:26:23;7.50;99.90
3186;DHT22;1604;53.700;10.252;2024-02-23T01:29:25;7.40;99.90
3186;DHT22;1604;53.700;10.252;2024-02-23T01:32:29;7.40;99.90
3186;DHT22;1604;53.700;10.252;2024-02-23T01:35:30;7.40;99.90
3186;DHT22;1604;53.700;10.252;2024-02-23T01:38:32;7.30;99.90
3186;DHT22;1604;53.700;10.252;2024-02-23T01:41:34;7.30;99.90
3186;DHT22;1604;53.700;10.252;2024-02-23T01:44:36;7.20;99.90
3186;DHT22;1604;53.700;10.252;2024-02-23T01:47:40;7.20;99.90
3186;DHT22;1604;53.700;10.252;2024-02-23T01:50:43;7.10;99.90
3186;DHT22;1604;53.700;10.252;2024-02-23T01:53:45;7.00;99.90
3186;DHT22;1604;53.700;10.252;2024-02-23T01:56:47;7.00;99.90
3186;DHT22;1604;53.700;10.252;2024-02-23T01:59:49;7.00;99.90
3186;DHT22;1604;53.700;10.252;2024-02-23T02:02:53;7.00;99.90
3186;DHT22;1604;53.700;10.252;2024-02-23T02:05:57;7.00;99.90
3186;DHT22;1604;53.700;10.252;2024-02-23T02:09:00;7.10;99.90
3186;DHT22;1604;53.700;10.252;2024-02-23T02:12:02;7.00;99.90
3186;DHT22;1604;53.700;10.252;2024-02-23T02:15:05;7.00;99.90
3186;DHT22;1604;53.700;10.252;2024-02-23T02:18:09;7.00;99.90
3186;DHT22;1604;53.700;10.252;2024-02-23T02:21:11;7.00;99.90
3186;DHT22;1604;53.700;10.252;2024-02-23T02:24:12;6.90;99.90
3186;DHT22;1604;53.700;10.252;2024-02-23T02:27:14;6.90;99.90
3186;DHT22;1604;53.700;10.252;2024-02-23T02:30:16;6.90;99.90
3186;DHT22;1604;53.700;10.252;2024-02-23T02:33:20;6.80;99.90
3186;DHT22;1604;53.700;10.252;2024-02-23T02:36:22;6.80;99.90
3186;DHT22;1604;53.700;10.252;2024-02-23T02:39:24;6.70;99.90
3186;DHT22;1604;53.700;10.252;2024-02-23T02:42:26;6.70;99.90
3186;DHT22;1604;53.700;10.252;2024-02-23T02:45:29;6.70;99.90
3186;DHT22;1604;53.700;10.252;2024-02-23T02:48:32;6.60;99.90
3186;DHT22;1604;53.700;10.252;2024-02-23T02:51:34;6.50;99.90
3186;DHT22;1604;53.700;10.252;2024-02-23T02:54:36;6.40;99.90
3186;DHT22;1604;53.700;10.252;2024-02-23T02:57:38;6.40;99.90
3186;DHT22;1604;53.700;10.252;2024-02-23T03:00:40;6.40;99.90
3186;DHT22;1604;53.700;10.252;2024-02-23T03:03:43;6.30;99.90
3186;DHT22;1604;53.700;10.252;2024-02-23T03:06:45;6.20;99.90
3186;DHT22;1604;53.700;10.252;2024-02-23T03:09:47;6.20;99.90
3186;DHT22;1604;53.700;10.252;2024-02-23T03:12:51;6.10;99.90
3186;DHT22;1604;53.700;10.252;2024-02-23T03:15:53;6.10;99.90
3186;DHT22;1604;53.700;10.252;2024-02-23T03:18:56;6.10;99.90
3186;DHT22;1604;53.700;10.252;2024-02-23T03:21:58;6.00;99.90
3186;DHT22;1604;53.700;10.252;2024-02-23T03:25:00;6.00;99.90
3186;DHT22;1604;53.700;10.252;2024-02-23T03:28:08;6.00;99.90
3186;DHT22;1604;53.700;10.252;2024-02-23T03:31:10;6.00;99.90
3186;DHT22;1604;53.700;10.252;2024-02-23T03:34:13;6.00;99.90
3186;DHT22;1604;53.700;10.252;2024-02-23T03:37:15;6.00;99.90
3186;DHT22;1604;53.700;10.252;2024-02-23T03:40:17;5.90;99.90
3186;DHT22;1604;53.700;10.252;2024-02-23T03:43:19;5.90;99.90
3186;DHT22;1604;53.700;10.252;2024-02-23T03:46:21;5.90;99.90
3186;DHT22;1604;53.700;10.252;2024-02-23T03:49:25;5.90;99.90
3186;DHT22;1604;53.700;10.252;2024-02-23T03:52:27;5.90;99.90
3186;DHT22;1604;53.700;10.252;2024-02-23T03:55:28;5.90;99.90
3186;DHT22;1604;53.700;10.252;2024-02-23T03:58:30;5.90;99.90
3186;DHT22;1604;53.700;10.252;2024-02-23T04:01:32;5.90;99.90
3186;DHT22;1604;53.700;10.252;2024-02-23T04:04:36;5.80;99.90
3186;DHT22;1604;53.700;10.252;2024-02-23T04:07:38;5.80;99.90
3186;DHT22;1604;53.700;10.252;2024-02-23T04:10:39;5.80;99.90
3186;DHT22;1604;53.700;10.252;2024-02-23T04:13:41;5.70;99.90
3186;DHT22;1604;53.700;10.252;2024-02-23T04:16:43;5.70;99.90
3186;DHT22;1604;53.700;10.252;2024-02-23T04:19:47;5.70;99.90
3186;DHT22;1604;53.700;10.252;2024-02-23T04:22:49;5.60;99.90
3186;DHT22;1604;53.700;10.252;2024-02-23T04:25:51;5.60;99.90
3186;DHT22;1604;53.700;10.252;2024-02-23T04:28:53;5.50;99.90
3186;DHT22;1604;53.700;10.252;2024-02-23T04:31:55;5.50;99.90
3186;DHT22;1604;53.700;10.252;2024-02-23T04:34:58;5.50;99.90
3186;DHT22;1604;53.700;10.252;2024-02-23T04:38:00;5.50;99.90
3186;DHT22;1604;53.700;10.252;2024-02-23T04:41:03;5.60;99.90
3186;DHT22;1604;53.700;10.252;2024-02-23T04:44:05;5.50;99.90
3186;DHT22;1604;53.700;10.252;2024-02-23T04:47:07;5.50;99.90
3186;DHT22;1604;53.700;10.252;2024-02-23T04:50:11;5.60;99.90
3186;DHT22;1604;53.700;10.252;2024-02-23T04:53:13;5.60;99.90
3186;DHT22;1604;53.700;10.252;2024-02-23T04:56:15;5.60;99.90
3186;DHT22;1604;53.700;10.252;2024-02-23T04:59:17;5.60;99.90
3186;DHT22;1604;53.700;10.252;2024-02-23T05:02:19;5.60;99.90
3186;DHT22;1604;53.700;10.252;2024-02-23T05:05:22;5.60;99.90
3186;DHT22;1604;53.700;10.252;2024-02-23T05:08:24;5.50;99.90
3186;DHT22;1604;53.700;10.252;2024-02-23T05:11:28;5.50;99.90
3186;DHT22;1604;53.700;10.252;2024-02-23T05:14:29;5.50;99.90
3186;DHT22;1604;53.700;10.252;2024-02-23T05:17:31;5.50;99.90
3186;DHT22;1604;53.700;10.252;2024-02-23T05:20:35;5.50;99.90
3186;DHT22;1604;53.700;10.252;2024-02-23T05:23:37;5.60;99.90
3186;DHT22;1604;53.700;10.252;2024-02-23T05:26:39;5.60;99.90
3186;DHT22;1604;53.700;10.252;2024-02-23T05:29:41;5.60;99.90
3186;DHT22;1604;53.700;10.252;2024-02-23T05:32:43;5.50;99.90
3186;DHT22;1604;53.700;10.252;2024-02-23T05:35:46;5.50;99.90
3186;DHT22;1604;53.700;10.252;2024-02-23T05:38:49;5.50;99.90
3186;DHT22;1604;53.700;10.252;2024-02-23T05:41:51;5.50;99.90
3186;DHT22;1604;53.700;10.252;2024-02-23T05:44:53;5.50;99.90
3186;DHT22;1604;53.700;10.252;2024-02-23T05:47:58;5.50;99.90
3186;DHT22;1604;53.700;10.252;2024-02-23T05:51:01;5.50;99.90
3186;DHT22;1604;53.700;10.252;2024-02-23T05:54:03;5.50;99.90
3186;DHT22;1604;53.700;10.252;2024-02-23T05:57:05;5.50;99.90
3186;DHT22;1604;53.700;10.252;2024-02-23T06:00:07;5.50;99.90
3186;DHT22;1604;53.700;10.252;2024-02-23T06:03:09;5.50;99.90
3186;DHT22;1604;53.700;10.252;2024-02-23T06:06:14;5.50;99.90
3186;DHT22;1604;53.700;10.252;2024-02-23T06:09:16;5.50;99.90
3186;DHT22;1604;53.700;10.252;2024-02-23T06:12:19;5.50;99.90
3186;DHT22;1604;53.700;10.252;2024-02-23T06:15:21;5.50;99.90
3186;DHT22;1604;53.700;10.252;2024-02-23T06:18:23;5.50;99.90
3186;DHT22;1604;53.700;10.252;2024-02-23T06:21:26;5.50;99.90
3186;DHT22;1604;53.700;10.252;2024-02-23T06:24:28;5.50;99.90
3186;DHT22;1604;53.700;10.252;2024-02-23T06:27:30;5.50;99.90
3186;DHT22;1604;53.700;10.252;2024-02-23T06:30:32;5.50;99.90
3186;DHT22;1604;53.700;10.252;2024-02-23T06:33:34;5.50;99.90
3186;DHT22;1604;53.700;10.252;2024-02-23T06:36:38;5.50;99.90
3186;DHT22;1604;53.700;10.252;2024-02-23T06:39:39;5.50;99.90
3186;DHT22;1604;53.700;10.252;2024-02-23T06:42:41;5.50;99.90
3186;DHT22;1604;53.700;10.252;2024-02-23T06:45:43;5.50;99.90
3186;DHT22;1604;53.700;10.252;2024-02-23T06:48:46;5.50;99.90
3186;DHT22;1604;53.700;10.252;2024-02-23T06:51:49;5.50;99.90
3186;DHT22;1604;53.700;10.252;2024-02-23T06:54:51;5.50;99.90
3186;DHT22;1604;53.700;10.252;2024-02-23T06:57:53;5.50;99.90
3186;DHT22;1604;53.700;10.252;2024-02-23T07:00:55;5.60;99.90
3186;DHT22;1604;53.700;10.252;2024-02-23T07:03:56;5.50;99.90
3186;DHT22;1604;53.700;10.252;2024-02-23T07:07:00;5.50;99.90
3186;DHT22;1604;53.700;10.252;2024-02-23T07:10:08;5.60;99.90
3186;DHT22;1604;53.700;10.252;2024-02-23T07:13:11;5.60;99.90
3186;DHT22;1604;53.700;10.252;2024-02-23T07:16:13;5.60;99.90
3186;DHT22;1604;53.700;10.252;2024-02-23T07:19:15;5.60;99.90
3186;DHT22;1604;53.700;10.252;2024-02-23T07:22:18;5.60;99.90
3186;DHT22;1604;53.700;10.252;2024-02-23T07:25:20;5.60;99.90
3186;DHT22;1604;53.700;10.252;2024-02-23T07:28:22;5.70;99.90
3186;DHT22;1604;53.700;10.252;2024-02-23T07:31:24;5.70;99.90
3186;DHT22;1604;53.700;10.252;2024-02-23T07:34:26;5.70;99.90
3186;DHT22;1604;53.700;10.252;2024-02-23T07:37:30;5.70;99.90
3186;DHT22;1604;53.700;10.252;2024-02-23T07:40:32;5.70;99.90
3186;DHT22;1604;53.700;10.252;2024-02-23T07:43:34;5.70;99.90
3186;DHT22;1604;53.700;10.252;2024-02-23T07:46:36;5.70;99.90
3186;DHT22;1604;53.700;10.252;2024-02-23T07:49:38;5.70;99.90
3186;DHT22;1604;53.700;10.252;2024-02-23T07:52:42;5.70;99.90
3186;DHT22;1604;53.700;10.252;2024-02-23T07:55:44;5.70;99.90
3186;DHT22;1604;53.700;10.252;2024-02-23T07:58:46;5.70;99.90
3186;DHT22;1604;53.700;10.252;2024-02-23T08:01:48;5.70;99.90
3186;DHT22;1604;53.700;10.252;2024-02-23T08:04:51;5.80;99.90
3186;DHT22;1604;53.700;10.252;2024-02-23T08:07:54;5.80;99.90
3186;DHT22;1604;53.700;10.252;2024-02-23T08:10:56;5.90;99.90
3186;DHT22;1604;53.700;10.252;2024-02-23T08:13:58;6.00;99.90
3186;DHT22;1604;53.700;10.252;2024-02-23T08:17:00;6.10;99.90
3186;DHT22;1604;53.700;10.252;2024-02-23T08:20:02;6.10;99.90
3186;DHT22;1604;53.700;10.252;2024-02-23T08:23:06;6.20;99.90
3186;DHT22;1604;53.700;10.252;2024-02-23T08:26:09;6.20;99.90
3186;DHT22;1604;53.700;10.252;2024-02-23T08:29:11;6.20;99.90
3186;DHT22;1604;53.700;10.252;2024-02-23T08:32:13;6.20;99.90
3186;DHT22;1604;53.700;10.252;2024-02-23T08:35:15;6.30;99.90
3186;DHT22;1604;53.700;10.252;2024-02-23T08:38:18;6.40;99.90
3186;DHT22;1604;53.700;10.252;2024-02-23T08:41:20;6.50;99.90
3186;DHT22;1604;53.700;10.252;2024-02-23T08:44:23;6.50;99.90
3186;DHT22;1604;53.700;10.252;2024-02-23T08:47:24;6.60;99.90
3186;DHT22;1604;53.700;10.252;2024-02-23T08:50:28;6.70;99.90
3186;DHT22;1604;53.700;10.252;2024-02-23T08:53:32;6.80;99.90
3186;DHT22;1604;53.700;10.252;2024-02-23T08:56:37;6.80;99.90
3186;DHT22;1604;53.700;10.252;2024-02-23T08:59:39;6.80;99.90
3186;DHT22;1604;53.700;10.252;2024-02-23T09:02:41;6.80;99.90
3186;DHT22;1604;53.700;10.252;2024-02-23T09:05:43;6.80;99.90
3186;DHT22;1604;53.700;10.252;2024-02-23T09:08:48;6.90;99.90
3186;DHT22;1604;53.700;10.252;2024-02-23T09:11:50;6.90;99.90
3186;DHT22;1604;53.700;10.252;2024-02-23T09:14:52;6.90;99.90
3186;DHT22;1604;53.700;10.252;2024-02-23T09:17:54;6.90;99.70
3186;DHT22;1604;53.700;10.252;2024-02-23T09:20:56;6.90;99.90
3186;DHT22;1604;53.700;10.252;2024-02-23T09:23:59;7.00;99.90
3186;DHT22;1604;53.700;10.252;2024-02-23T09:27:01;7.00;99.90
3186;DHT22;1604;53.700;10.252;2024-02-23T09:30:04;7.00;99.40
3186;DHT22;1604;53.700;10.252;2024-02-23T09:33:07;7.10;99.90
3186;DHT22;1604;53.700;10.252;2024-02-23T09:36:09;7.10;99.60
3186;DHT22;1604;53.700;10.252;2024-02-23T09:39:12;7.20;99.90
3186;DHT22;1604;53.700;10.252;2024-02-23T09:42:15;7.20;99.50
3186;DHT22;1604;53.700;10.252;2024-02-23T09:45:18;7.20;99.70
3186;DHT22;1604;53.700;10.252;2024-02-23T09:48:21;7.20;99.30
3186;DHT22;1604;53.700;10.252;2024-02-23T09:51:25;7.30;99.40
3186;DHT22;1604;53.700;10.252;2024-02-23T09:54:29;7.40;98.10
3186;DHT22;1604;53.700;10.252;2024-02-23T09:57:31;7.40;98.70
3186;DHT22;1604;53.700;10.252;2024-02-23T10:00:33;7.50;97.10
3186;DHT22;1604;53.700;10.252;2024-02-23T10:03:37;7.50;97.50
3186;DHT22;1604;53.700;10.252;2024-02-23T10:06:40;7.50;98.10
3186;DHT22;1604;53.700;10.252;2024-02-23T10:09:43;7.60;98.40
3186;DHT22;1604;53.700;10.252;2024-02-23T10:12:45;7.70;97.20
3186;DHT22;1604;53.700;10.252;2024-02-23T10:15:48;7.80;96.90
3186;DHT22;1604;53.700;10.252;2024-02-23T10:18:50;7.80;96.50
3186;DHT22;1604;53.700;10.252;2024-02-23T10:21:52;7.80;95.80
3186;DHT22;1604;53.700;10.252;2024-02-23T10:24:56;7.80;95.60
3186;DHT22;1604;53.700;10.252;2024-02-23T10:27:58;7.80;95.50
3186;DHT22;1604;53.700;10.252;2024-02-23T10:31:00;7.80;96.70
3186;DHT22;1604;53.700;10.252;2024-02-23T10:34:07;7.90;96.10
3186;DHT22;1604;53.700;10.252;2024-02-23T10:37:12;8.00;94.80
3186;DHT22;1604;53.700;10.252;2024-02-23T10:40:16;8.00;95.50
3186;DHT22;1604;53.700;10.252;2024-02-23T10:43:20;8.10;94.80
3186;DHT22;1604;53.700;10.252;2024-02-23T10:46:25;8.20;93.80
3186;DHT22;1604;53.700;10.252;2024-02-23T10:49:28;8.10;94.90
3186;DHT22;1604;53.700;10.252;2024-02-23T10:52:30;8.10;95.30
3186;DHT22;1604;53.700;10.252;2024-02-23T10:55:36;8.10;94.80
3186;DHT22;1604;53.700;10.252;2024-02-23T10:58:38;8.10;93.90
3186;DHT22;1604;53.700;10.252;2024-02-23T11:01:40;8.10;94.20
3186;DHT22;1604;53.700;10.252;2024-02-23T11:04:43;8.10;94.70
3186;DHT22;1604;53.700;10.252;2024-02-23T11:07:47;8.30;93.90
3186;DHT22;1604;53.700;10.252;2024-02-23T11:10:52;8.40;94.50
3186;DHT22;1604;53.700;10.252;2024-02-23T11:13:56;8.40;94.50
3186;DHT22;1604;53.700;10.252;2024-02-23T11:16:58;8.50;90.50
3186;DHT22;1604;53.700;10.252;2024-02-23T11:20:03;8.50;89.70
3186;DHT22;1604;53.700;10.252;2024-02-23T11:23:13;8.60;89.50
3186;DHT22;1604;53.700;10.252;2024-02-23T11:26:18;8.60;91.00
3186;DHT22;1604;53.700;10.252;2024-02-23T11:29:20;8.60;93.10
3186;DHT22;1604;53.700;10.252;2024-02-23T11:32:36;8.70;92.20
3186;DHT22;1604;53.700;10.252;2024-02-23T11:35:46;8.90;93.60
3186;DHT22;1604;53.700;10.252;2024-02-23T11:38:52;9.10;90.50
3186;DHT22;1604;53.700;10.252;2024-02-23T11:41:57;9.10;89.40
3186;DHT22;1604;53.700;10.252;2024-02-23T11:45:00;9.10;88.00
3186;DHT22;1604;53.700;10.252;2024-02-23T11:48:02;9.10;87.30
3186;DHT22;1604;53.700;10.252;2024-02-23T11:51:07;9.00;86.80
3186;DHT22;1604;53.700;10.252;2024-02-23T11:54:09;8.90;88.90
3186;DHT22;1604;53.700;10.252;2024-02-23T11:57:12;8.90;89.70
3186;DHT22;1604;53.700;10.252;2024-02-23T12:00:15;9.00;89.30
3186;DHT22;1604;53.700;10.252;2024-02-23T12:03:17;9.00;88.00
3186;DHT22;1604;53.700;10.252;2024-02-23T12:06:20;9.00;88.40
3186;DHT22;1604;53.700;10.252;2024-02-23T12:09:22;9.00;89.00
3186;DHT22;1604;53.700;10.252;2024-02-23T12:12:25;9.00;90.60
3186;DHT22;1604;53.700;10.252;2024-02-23T12:15:27;9.00;89.10
3186;DHT22;1604;53.700;10.252;2024-02-23T12:18:29;9.10;89.60
3186;DHT22;1604;53.700;10.252;2024-02-23T12:21:34;9.10;89.70
3186;DHT22;1604;53.700;10.252;2024-02-23T12:24:36;9.10;91.00
3186;DHT22;1604;53.700;10.252;2024-02-23T12:27:40;9.10;89.80
3186;DHT22;1604;53.700;10.252;2024-02-23T12:30:42;9.10;85.70
3186;DHT22;1604;53.700;10.252;2024-02-23T12:33:46;9.00;86.40
3186;DHT22;1604;53.700;10.252;2024-02-23T12:36:48;8.90;86.90
3186;DHT22;1604;53.700;10.252;2024-02-23T12:39:51;8.90;87.00
3186;DHT22;1604;53.700;10.252;2024-02-23T12:42:54;8.90;87.60
3186;DHT22;1604;53.700;10.252;2024-02-23T12:45:57;8.90;86.30
3186;DHT22;1604;53.700;10.252;2024-02-23T12:48:59;9.00;85.70
3186;DHT22;1604;53.700;10.252;2024-02-23T12:52:01;8.90;88.30
3186;DHT22;1604;53.700;10.252;2024-02-23T12:55:04;8.90;84.30
3186;DHT22;1604;53.700;10.252;2024-02-23T12:58:07;8.90;85.70
3186;DHT22;1604;53.700;10.252;2024-02-23T13:01:10;8.90;83.00
3186;DHT22;1604;53.700;10.252;2024-02-23T13:04:12;8.80;83.90
3186;DHT22;1604;53.700;10.252;2024-02-23T13:07:14;8.90;81.00
3186;DHT22;1604;53.700;10.252;2024-02-23T13:10:17;8.80;83.30
3186;DHT22;1604;53.700;10.252;2024-02-23T13:13:22;8.80;81.10
3186;DHT22;1604;53.700;10.252;2024-02-23T13:16:24;8.80;82.80
3186;DHT22;1604;53.700;10.252;2024-02-23T13:19:29;8.90;81.10
3186;DHT22;1604;53.700;10.252;2024-02-23T13:22:31;8.90;82.70
3186;DHT22;1604;53.700;10.252;2024-02-23T13:25:32;8.90;83.30
3186;DHT22;1604;53.700;10.252;2024-02-23T13:28:36;8.90;82.70
3186;DHT22;1604;53.700;10.252;2024-02-23T13:31:38;8.90;83.80
3186;DHT22;1604;53.700;10.252;2024-02-23T13:34:40;8.90;85.50
3186;DHT22;1604;53.700;10.252;2024-02-23T13:37:42;8.90;86.50
3186;DHT22;1604;53.700;10.252;2024-02-23T13:40:44;9.00;83.90
3186;DHT22;1604;53.700;10.252;2024-02-23T13:43:47;9.00;82.80
3186;DHT22;1604;53.700;10.252;2024-02-23T13:46:52;9.00;83.00
3186;DHT22;1604;53.700;10.252;2024-02-23T13:49:56;9.00;83.20
3186;DHT22;1604;53.700;10.252;2024-02-23T13:52:58;9.00;83.60
3186;DHT22;1604;53.700;10.252;2024-02-23T13:56:01;8.90;83.90
3186;DHT22;1604;53.700;10.252;2024-02-23T13:59:04;8.80;82.90
3186;DHT22;1604;53.700;10.252;2024-02-23T14:02:06;8.80;83.80
3186;DHT22;1604;53.700;10.252;2024-02-23T14:05:09;8.80;82.80
3186;DHT22;1604;53.700;10.252;2024-02-23T14:08:11;8.70;83.80
3186;DHT22;1604;53.700;10.252;2024-02-23T14:11:13;8.80;80.70
3186;DHT22;1604;53.700;10.252;2024-02-23T14:14:16;8.80;80.00
3186;DHT22;1604;53.700;10.252;2024-02-23T14:17:18;8.70;83.00
3186;DHT22;1604;53.700;10.252;2024-02-23T14:20:20;8.60;83.70
3186;DHT22;1604;53.700;10.252;2024-02-23T14:23:22;8.60;83.30
3186;DHT22;1604;53.700;10.252;2024-02-23T14:26:24;8.60;85.10
3186;DHT22;1604;53.700;10.252;2024-02-23T14:29:28;8.60;84.50
3186;DHT22;1604;53.700;10.252;2024-02-23T14:32:29;8.70;81.80
3186;DHT22;1604;53.700;10.252;2024-02-23T14:35:32;8.70;83.60
3186;DHT22;1604;53.700;10.252;2024-02-23T14:38:34;8.70;82.60
3186;DHT22;1604;53.700;10.252;2024-02-23T14:41:36;8.80;82.60
3186;DHT22;1604;53.700;10.252;2024-02-23T14:44:39;8.80;81.60
3186;DHT22;1604;53.700;10.252;2024-02-23T14:47:41;9.00;81.50
3186;DHT22;1604;53.700;10.252;2024-02-23T14:50:44;9.00;80.70
3186;DHT22;1604;53.700;10.252;2024-02-23T14:53:46;9.00;80.90
3186;DHT22;1604;53.700;10.252;2024-02-23T14:56:48;9.00;82.90
3186;DHT22;1604;53.700;10.252;2024-02-23T14:59:52;8.90;82.20
3186;DHT22;1604;53.700;10.252;2024-02-23T15:02:54;8.90;81.30
3186;DHT22;1604;53.700;10.252;2024-02-23T15:05:56;8.90;81.20
3186;DHT22;1604;53.700;10.252;2024-02-23T15:08:58;8.80;80.80
3186;DHT22;1604;53.700;10.252;2024-02-23T15:12:00;8.80;81.60
3186;DHT22;1604;53.700;10.252;2024-02-23T15:15:03;8.70;81.90
3186;DHT22;1604;53.700;10.252;2024-02-23T15:18:07;8.70;82.40
3186;DHT22;1604;53.700;10.252;2024-02-23T15:21:09;8.70;82.20
3186;DHT22;1604;53.700;10.252;2024-02-23T15:24:12;8.60;82.40
3186;DHT22;1604;53.700;10.252;2024-02-23T15:27:14;8.70;81.40
3186;DHT22;1604;53.700;10.252;2024-02-23T15:30:20;8.70;81.80
3186;DHT22;1604;53.700;10.252;2024-02-23T15:33:22;8.70;81.50
3186;DHT22;1604;53.700;10.252;2024-02-23T15:36:24;8.60;82.90
3186;DHT22;1604;53.700;10.252;2024-02-23T15:39:26;8.70;82.00
3186;DHT22;1604;53.700;10.252;2024-02-23T15:42:28;8.70;82.10
3186;DHT22;1604;53.700;10.252;2024-02-23T15:45:31;8.70;81.80
3186;DHT22;1604;53.700;10.252;2024-02-23T15:48:33;8.70;82.20
3186;DHT22;1604;53.700;10.252;2024-02-23T15:51:36;8.70;81.30
3186;DHT22;1604;53.700;10.252;2024-02-23T15:54:38;8.70;82.60
3186;DHT22;1604;53.700;10.252;2024-02-23T15:57:40;8.70;82.10
3186;DHT22;1604;53.700;10.252;2024-02-23T16:00:45;8.70;82.90
3186;DHT22;1604;53.700;10.252;2024-02-23T16:03:47;8.60;83.80
3186;DHT22;1604;53.700;10.252;2024-02-23T16:06:48;8.60;84.30
3186;DHT22;1604;53.700;10.252;2024-02-23T16:09:50;8.60;84.00
3186;DHT22;1604;53.700;10.252;2024-02-23T16:12:52;8.60;83.40
3186;DHT22;1604;53.700;10.252;2024-02-23T16:15:56;8.60;83.60
3186;DHT22;1604;53.700;10.252;2024-02-23T16:18:58;8.60;83.50
3186;DHT22;1604;53.700;10.252;2024-02-23T16:22:00;8.50;83.80
3186;DHT22;1604;53.700;10.252;2024-02-23T16:25:02;8.60;83.50
3186;DHT22;1604;53.700;10.252;2024-02-23T16:28:04;8.50;84.40
3186;DHT22;1604;53.700;10.252;2024-02-23T16:31:08;8.50;84.50
3186;DHT22;1604;53.700;10.252;2024-02-23T16:34:10;8.40;84.30
3186;DHT22;1604;53.700;10.252;2024-02-23T16:37:12;8.40;84.70
3186;DHT22;1604;53.700;10.252;2024-02-23T16:40:22;8.40;85.10
3186;DHT22;1604;53.700;10.252;2024-02-23T16:43:28;8.40;84.70
3186;DHT22;1604;53.700;10.252;2024-02-23T16:46:32;8.40;85.50
3186;DHT22;1604;53.700;10.252;2024-02-23T16:49:33;8.40;85.70
3186;DHT22;1604;53.700;10.252;2024-02-23T16:52:35;8.30;86.10
3186;DHT22;1604;53.700;10.252;2024-02-23T16:55:38;8.30;86.20
3186;DHT22;1604;53.700;10.252;2024-02-23T16:58:39;8.30;86.40
3186;DHT22;1604;53.700;10.252;2024-02-23T17:01:43;8.20;87.30
3186;DHT22;1604;53.700;10.252;2024-02-23T17:04:45;8.20;87.30
3186;DHT22;1604;53.700;10.252;2024-02-23T17:07:47;8.10;87.90
3186;DHT22;1604;53.700;10.252;2024-02-23T17:10:49;8.10;88.00
3186;DHT22;1604;53.700;10.252;2024-02-23T17:13:51;8.10;88.10
3186;DHT22;1604;53.700;10.252;2024-02-23T17:16:55;8.10;87.90
3186;DHT22;1604;53.700;10.252;2024-02-23T17:19:59;8.10;88.40
3186;DHT22;1604;53.700;10.252;2024-02-23T17:23:01;8.10;88.50
3186;DHT22;1604;53.700;10.252;2024-02-23T17:26:03;8.10;88.40
3186;DHT22;1604;53.700;10.252;2024-02-23T17:29:05;8.10;88.10
3186;DHT22;1604;53.700;10.252;2024-02-23T17:32:11;8.10;88.90
3186;DHT22;1604;53.700;10.252;2024-02-23T17:35:13;8.10;88.80
3186;DHT22;1604;53.700;10.252;2024-02-23T17:38:15;8.10;90.80
3186;DHT22;1604;53.700;10.252;2024-02-23T17:41:17;8.10;94.70
3186;DHT22;1604;53.700;10.252;2024-02-23T17:44:19;7.90;99.70
3186;DHT22;1604;53.700;10.252;2024-02-23T17:47:23;7.60;99.90
3186;DHT22;1604;53.700;10.252;2024-02-23T17:50:25;7.30;99.90
3186;DHT22;1604;53.700;10.252;2024-02-23T17:53:27;7.10;99.90
3186;DHT22;1604;53.700;10.252;2024-02-23T17:56:30;7.00;99.90
3186;DHT22;1604;53.700;10.252;2024-02-23T17:59:33;6.90;99.90
3186;DHT22;1604;53.700;10.252;2024-02-23T18:02:36;6.80;99.90
3186;DHT22;1604;53.700;10.252;2024-02-23T18:05:38;6.70;99.90
3186;DHT22;1604;53.700;10.252;2024-02-23T18:08:40;6.70;99.90
3186;DHT22;1604;53.700;10.252;2024-02-23T18:11:42;6.60;99.90
3186;DHT22;1604;53.700;10.252;2024-02-23T18:14:44;6.60;99.90
3186;DHT22;1604;53.700;10.252;2024-02-23T18:17:47;6.50;99.90
3186;DHT22;1604;53.700;10.252;2024-02-23T18:20:51;6.50;99.90
3186;DHT22;1604;53.700;10.252;2024-02-23T18:23:53;6.40;99.90
3186;DHT22;1604;53.700;10.252;2024-02-23T18:26:55;6.40;99.90
3186;DHT22;1604;53.700;10.252;2024-02-23T18:29:56;6.30;99.90
3186;DHT22;1604;53.700;10.252;2024-02-23T18:33:00;6.20;99.90
3186;DHT22;1604;53.700;10.252;2024-02-23T18:36:02;6.10;99.90
3186;DHT22;1604;53.700;10.252;2024-02-23T18:39:04;6.00;99.90
3186;DHT22;1604;53.700;10.252;2024-02-23T18:42:07;5.90;99.90
3186;DHT22;1604;53.700;10.252;2024-02-23T18:45:09;6.00;99.90
3186;DHT22;1604;53.700;10.252;2024-02-23T18:48:16;6.00;99.90
3186;DHT22;1604;53.700;10.252;2024-02-23T18:51:20;6.00;99.90
3186;DHT22;1604;53.700;10.252;2024-02-23T18:54:23;6.00;99.90
3186;DHT22;1604;53.700;10.252;2024-02-23T18:57:26;6.00;99.90
3186;DHT22;1604;53.700;10.252;2024-02-23T19:00:29;5.90;99.90
3186;DHT22;1604;53.700;10.252;2024-02-23T19:03:33;5.90;99.90
3186;DHT22;1604;53.700;10.252;2024-02-23T19:06:35;5.90;99.90
3186;DHT22;1604;53.700;10.252;2024-02-23T19:09:36;5.80;99.90
3186;DHT22;1604;53.700;10.252;2024-02-23T19:12:38;5.80;99.90
3186;DHT22;1604;53.700;10.252;2024-02-23T19:15:42;5.90;99.90
3186;DHT22;1604;53.700;10.252;2024-02-23T19:18:46;5.90;99.90
3186;DHT22;1604;53.700;10.252;2024-02-23T19:21:48;6.00;99.90
3186;DHT22;1604;53.700;10.252;2024-02-23T19:24:50;6.00;99.90
3186;DHT22;1604;53.700;10.252;2024-02-23T19:27:52;6.00;99.90
3186;DHT22;1604;53.700;10.252;2024-02-23T19:30:54;6.10;99.90
3186;DHT22;1604;53.700;10.252;2024-02-23T19:33:58;6.10;99.90
3186;DHT22;1604;53.700;10.252;2024-02-23T19:37:02;6.10;99.90
3186;DHT22;1604;53.700;10.252;2024-02-23T19:40:06;6.10;99.90
3186;DHT22;1604;53.700;10.252;2024-02-23T19:43:10;6.10;99.90
3186;DHT22;1604;53.700;10.252;2024-02-23T19:46:12;6.10;99.90
3186;DHT22;1604;53.700;10.252;2024-02-23T19:49:19;6.10;99.90
3186;DHT22;1604;53.700;10.252;2024-02-23T19:52:21;6.10;99.90